sensor_id;sensor_type;location;lat;lon;timestamp;pressure;altitude;pressure_sealevel;temperature;humidity
57990;BME280;58373;51.824;5.564;2024-03-17T00:01:41;102280.63;;;4.92;98.86
57990;BME280;58373;51.824;5.564;2024-03-17T00:04:06;102278.97;;;4.91;99.15
57990;BME280;58373;51.824;5.564;2024-03-17T00:06:31;102280.75;;;4.89;99.62
57990;BME280;58373;51.824;5.564;2024-03-17T00:08:57;102276.50;;;4.88;99.71
57990;BME280;58373;51.824;5.564;2024-03-17T00:11:22;102282.44;;;4.90;99.35
57990;BME280;58373;51.824;5.564;2024-03-17T00:13:47;102272.16;;;4.90;99.34
57990;BME280;58373;51.824;5.564;2024-03-17T00:16:13;102272.16;;;4.90;99.12
57990;BME280;58373;51.824;5.564;2024-03-17T00:18:39;102268.81;;;4.88;99.13
57990;BME280;58373;51.824;5.564;2024-03-17T00:21:04;102265.44;;;4.86;98.79
57990;BME280;58373;51.824;5.564;2024-03-17T00:23:29;102260.28;;;4.86;99.36
57990;BME280;58373;51.824;5.564;2024-03-17T00:25:55;102263.75;;;4.85;99.61
57990;BME280;58373;51.824;5.564;2024-03-17T00:28:20;102269.72;;;4.85;99.77
57990;BME280;58373;51.824;5.564;2024-03-17T00:30:45;102265.44;;;4.86;99.87
57990;BME280;58373;51.824;5.564;2024-03-17T00:33:11;102253.47;;;4.85;99.62
57990;BME280;58373;51.824;5.564;2024-03-17T00:35:36;102252.56;;;4.86;99.88
57990;BME280;58373;51.824;5.564;2024-03-17T00:38:01;102246.53;;;4.87;100.00
57990;BME280;58373;51.824;5.564;2024-03-17T00:40:31;102253.47;;;4.85;99.66
57990;BME280;58373;51.824;5.564;2024-03-17T00:42:56;102249.16;;;4.85;100.00
57990;BME280;58373;51.824;5.564;2024-03-17T00:45:21;102251.78;;;4.84;100.00
57990;BME280;58373;51.824;5.564;2024-03-17T00:47:47;102252.69;;;4.83;100.00
57990;BME280;58373;51.824;5.564;2024-03-17T00:50:12;102248.41;;;4.82;100.00
57990;BME280;58373;51.824;5.564;2024-03-17T00:52:37;102251.88;;;4.80;100.00
57990;BME280;58373;51.824;5.564;2024-03-17T00:55:03;102255.34;;;4.79;100.00
57990;BME280;58373;51.824;5.564;2024-03-17T00:57:28;102249.38;;;4.79;100.00
57990;BME280;58373;51.824;5.564;2024-03-17T00:59:53;102242.50;;;4.79;100.00
57990;BME280;58373;51.824;5.564;2024-03-17T01:02:19;102235.69;;;4.78;100.00
57990;BME280;58373;51.824;5.564;2024-03-17T01:04:45;102238.25;;;4.78;100.00
57990;BME280;58373;51.824;5.564;2024-03-17T01:07:11;102235.75;;;4.77;100.00
57990;BME280;58373;51.824;5.564;2024-03-17T01:09:36;102236.66;;;4.76;100.00
57990;BME280;58373;51.824;5.564;2024-03-17T01:12:01;102235.78;;;4.75;100.00
57990;BME280;58373;51.824;5.564;2024-03-17T01:14:27;102235.84;;;4.74;100.00
57990;BME280;58373;51.824;5.564;2024-03-17T01:16:53;102239.31;;;4.73;100.00
57990;BME280;58373;51.824;5.564;2024-03-17T01:19:18;102241.03;;;4.72;100.00
57990;BME280;58373;51.824;5.564;2024-03-17T01:21:43;102243.63;;;4.72;100.00
57990;BME280;58373;51.824;5.564;2024-03-17T01:24:08;102237.63;;;4.72;100.00
57990;BME280;58373;51.824;5.564;2024-03-17T01:26:33;102227.34;;;4.72;100.00
57990;BME280;58373;51.824;5.564;2024-03-17T01:28:58;102222.22;;;4.72;100.00
57990;BME280;58373;51.824;5.564;2024-03-17T01:31:24;102219.72;;;4.70;100.00
57990;BME280;58373;51.824;5.564;2024-03-17T01:33:49;102221.47;;;4.68;100.00
57990;BME280;58373;51.824;5.564;2024-03-17T01:36:15;102207.78;;;4.68;100.00
57990;BME280;58373;51.824;5.564;2024-03-17T01:38:40;102204.38;;;4.67;100.00
57990;BME280;58373;51.824;5.564;2024-03-17T01:41:05;102200.19;;;4.65;100.00
57990;BME280;58373;51.824;5.564;2024-03-17T01:43:31;102202.03;;;4.61;100.00
57990;BME280;58373;51.824;5.564;2024-03-17T01:45:56;102196.13;;;4.59;100.00
57990;BME280;58373;51.824;5.564;2024-03-17T01:48:23;102197.88;;;4.57;100.00
57990;BME280;58373;51.824;5.564;2024-03-17T01:50:49;102194.53;;;4.55;100.00
57990;BME280;58373;51.824;5.564;2024-03-17T01:53:16;102194.53;;;4.55;100.00
57990;BME280;58373;51.824;5.564;2024-03-17T01:55:42;102191.19;;;4.53;100.00
57990;BME280;58373;51.824;5.564;2024-03-17T01:58:08;102192.84;;;4.54;100.00
57990;BME280;58373;51.824;5.564;2024-03-17T02:00:35;102184.34;;;4.52;100.00
57990;BME280;58373;51.824;5.564;2024-03-17T02:03:04;102186.97;;;4.50;100.00
57990;BME280;58373;51.824;5.564;2024-03-17T02:05:30;102184.56;;;4.46;100.00
57990;BME280;58373;51.824;5.564;2024-03-17T02:08:05;102183.78;;;4.44;100.00
57990;BME280;58373;51.824;5.564;2024-03-17T02:10:30;102184.69;;;4.43;100.00
57990;BME280;58373;51.824;5.564;2024-03-17T02:12:55;102193.28;;;4.42;100.00
57990;BME280;58373;51.824;5.564;2024-03-17T02:15:20;102181.44;;;4.38;100.00
57990;BME280;58373;51.824;5.564;2024-03-17T02:17:46;102180.63;;;4.36;100.00
57990;BME280;58373;51.824;5.564;2024-03-17T02:20:11;102182.31;;;4.37;100.00
57990;BME280;58373;51.824;5.564;2024-03-17T02:22:36;102167.78;;;4.36;100.00
57990;BME280;58373;51.824;5.564;2024-03-17T02:25:02;102166.09;;;4.35;100.00
57990;BME280;58373;51.824;5.564;2024-03-17T02:27:33;102177.28;;;4.34;100.00
57990;BME280;58373;51.824;5.564;2024-03-17T02:29:58;102169.56;;;4.34;100.00
57990;BME280;58373;51.824;5.564;2024-03-17T02:32:23;102171.34;;;4.32;100.00
57990;BME280;58373;51.824;5.564;2024-03-17T02:34:50;102166.22;;;4.32;100.00
57990;BME280;58373;51.824;5.564;2024-03-17T02:37:15;102171.34;;;4.32;100.00
57990;BME280;58373;51.824;5.564;2024-03-17T02:39:40;102171.34;;;4.32;100.00
57990;BME280;58373;51.824;5.564;2024-03-17T02:42:06;102161.94;;;4.32;100.00
57990;BME280;58373;51.824;5.564;2024-03-17T02:44:32;102166.22;;;4.32;100.00
57990;BME280;58373;51.824;5.564;2024-03-17T02:47:01;102164.56;;;4.31;100.00
57990;BME280;58373;51.824;5.564;2024-03-17T02:49:29;102162.75;;;4.33;100.00
57990;BME280;58373;51.824;5.564;2024-03-17T02:52:02;102164.44;;;4.34;100.00
57990;BME280;58373;51.824;5.564;2024-03-17T02:54:27;102159.28;;;4.34;100.00
57990;BME280;58373;51.824;5.564;2024-03-17T02:56:52;102164.44;;;4.34;100.00
57990;BME280;58373;51.824;5.564;2024-03-17T02:59:17;102152.38;;;4.36;100.00
57990;BME280;58373;51.824;5.564;2024-03-17T03:01:43;102154.94;;;4.36;100.00
57990;BME280;58373;51.824;5.564;2024-03-17T03:04:09;102154.06;;;4.37;100.00
57990;BME280;58373;51.824;5.564;2024-03-17T03:06:35;102151.38;;;4.40;100.00
57990;BME280;58373;51.824;5.564;2024-03-17T03:09:00;102157.31;;;4.42;100.00
57990;BME280;58373;51.824;5.564;2024-03-17T03:11:25;102155.53;;;4.44;100.00
57990;BME280;58373;51.824;5.564;2024-03-17T03:13:51;102158.09;;;4.44;100.00
57990;BME280;58373;51.824;5.564;2024-03-17T03:16:16;102162.34;;;4.45;100.00
57990;BME280;58373;51.824;5.564;2024-03-17T03:18:43;102157.94;;;4.48;100.00
57990;BME280;58373;51.824;5.564;2024-03-17T03:21:09;102165.59;;;4.50;100.00
57990;BME280;58373;51.824;5.564;2024-03-17T03:23:34;102160.44;;;4.50;100.00
57990;BME280;58373;51.824;5.564;2024-03-17T03:26:00;102163.78;;;4.52;100.00
57990;BME280;58373;51.824;5.564;2024-03-17T03:28:27;102165.50;;;4.53;100.00
57990;BME280;58373;51.824;5.564;2024-03-17T03:30:53;102158.56;;;4.55;100.00
57990;BME280;58373;51.824;5.564;2024-03-17T03:33:19;102161.91;;;4.57;100.00
57990;BME280;58373;51.824;5.564;2024-03-17T03:35:44;102161.91;;;4.57;100.00
57990;BME280;58373;51.824;5.564;2024-03-17T03:38:10;102144.72;;;4.59;100.00
57990;BME280;58373;51.824;5.564;2024-03-17T03:40:36;102142.19;;;4.58;100.00
57990;BME280;58373;51.824;5.564;2024-03-17T03:43:01;102141.34;;;4.57;100.00
57990;BME280;58373;51.824;5.564;2024-03-17T03:45:27;102140.44;;;4.58;100.00
57990;BME280;58373;51.824;5.564;2024-03-17T03:47:52;102138.72;;;4.59;100.00
57990;BME280;58373;51.824;5.564;2024-03-17T03:50:19;102135.28;;;4.60;100.00
57990;BME280;58373;51.824;5.564;2024-03-17T03:52:45;102136.13;;;4.60;100.00
57990;BME280;58373;51.824;5.564;2024-03-17T03:55:11;102133.53;;;4.60;100.00
57990;BME280;58373;51.824;5.564;2024-03-17T03:57:39;102131.81;;;4.61;100.00
57990;BME280;58373;51.824;5.564;2024-03-17T04:00:05;102140.28;;;4.63;100.00
57990;BME280;58373;51.824;5.564;2024-03-17T04:02:37;102130.00;;;4.63;100.00
57990;BME280;58373;51.824;5.564;2024-03-17T04:05:02;102117.09;;;4.64;100.00
57990;BME280;58373;51.824;5.564;2024-03-17T04:07:28;102111.97;;;4.64;100.00
57990;BME280;58373;51.824;5.564;2024-03-17T04:09:53;102104.25;;;4.64;100.00
57990;BME280;58373;51.824;5.564;2024-03-17T04:12:18;102097.34;;;4.66;100.00
57990;BME280;58373;51.824;5.564;2024-03-17T04:14:44;102094.78;;;4.66;100.00
57990;BME280;58373;51.824;5.564;2024-03-17T04:17:10;102090.47;;;4.67;100.00
57990;BME280;58373;51.824;5.564;2024-03-17T04:19:36;102092.16;;;4.68;100.00
57990;BME280;58373;51.824;5.564;2024-03-17T04:22:01;102103.25;;;4.68;100.00
57990;BME280;58373;51.824;5.564;2024-03-17T04:24:26;102101.59;;;4.67;100.00
57990;BME280;58373;51.824;5.564;2024-03-17T04:26:52;102093.94;;;4.66;100.00
57990;BME280;58373;51.824;5.564;2024-03-17T04:29:18;102098.25;;;4.65;100.00
57990;BME280;58373;51.824;5.564;2024-03-17T04:31:43;102098.25;;;4.65;100.00
57990;BME280;58373;51.824;5.564;2024-03-17T04:34:13;102087.97;;;4.65;100.00
57990;BME280;58373;51.824;5.564;2024-03-17T04:36:38;102086.28;;;4.64;100.00
57990;BME280;58373;51.824;5.564;2024-03-17T04:39:04;102084.59;;;4.63;100.00
57990;BME280;58373;51.824;5.564;2024-03-17T04:41:33;102086.41;;;4.61;100.00
57990;BME280;58373;51.824;5.564;2024-03-17T04:43:58;102086.41;;;4.61;100.00
57990;BME280;58373;51.824;5.564;2024-03-17T04:46:23;102084.72;;;4.60;100.00
57990;BME280;58373;51.824;5.564;2024-03-17T04:48:49;102082.19;;;4.59;100.00
57990;BME280;58373;51.824;5.564;2024-03-17T04:51:17;102074.53;;;4.57;100.00
57990;BME280;58373;51.824;5.564;2024-03-17T04:53:42;102082.25;;;4.57;100.00
57990;BME280;58373;51.824;5.564;2024-03-17T04:56:07;102080.59;;;4.56;100.00
57990;BME280;58373;51.824;5.564;2024-03-17T04:58:33;102077.19;;;4.56;100.00
57990;BME280;58373;51.824;5.564;2024-03-17T05:01:02;102078.00;;;4.56;100.00
57990;BME280;58373;51.824;5.564;2024-03-17T05:03:28;102080.66;;;4.55;100.00
57990;BME280;58373;51.824;5.564;2024-03-17T05:06:00;102075.50;;;4.55;100.00
57990;BME280;58373;51.824;5.564;2024-03-17T05:08:25;102072.09;;;4.54;100.00
57990;BME280;58373;51.824;5.564;2024-03-17T05:10:55;102081.53;;;4.53;100.00
57990;BME280;58373;51.824;5.564;2024-03-17T05:13:20;102078.97;;;4.53;100.00
57990;BME280;58373;51.824;5.564;2024-03-17T05:15:45;102086.63;;;4.55;100.00
57990;BME280;58373;51.824;5.564;2024-03-17T05:18:11;102074.69;;;4.54;100.00
57990;BME280;58373;51.824;5.564;2024-03-17T05:20:36;102079.81;;;4.54;100.00
57990;BME280;58373;51.824;5.564;2024-03-17T05:23:01;102078.16;;;4.53;100.00
57990;BME280;58373;51.824;5.564;2024-03-17T05:25:27;102068.72;;;4.52;100.00
57990;BME280;58373;51.824;5.564;2024-03-17T05:27:52;102070.44;;;4.53;100.00
57990;BME280;58373;51.824;5.564;2024-03-17T05:30:17;102070.47;;;4.51;100.00
57990;BME280;58373;51.824;5.564;2024-03-17T05:32:43;102081.56;;;4.52;100.00
57990;BME280;58373;51.824;5.564;2024-03-17T05:35:08;102081.56;;;4.52;100.00
57990;BME280;58373;51.824;5.564;2024-03-17T05:37:35;102084.13;;;4.53;100.00
57990;BME280;58373;51.824;5.564;2024-03-17T05:40:00;102081.56;;;4.52;100.00
57990;BME280;58373;51.824;5.564;2024-03-17T05:42:25;102078.16;;;4.53;100.00
57990;BME280;58373;51.824;5.564;2024-03-17T05:44:51;102079.81;;;4.54;100.00
57990;BME280;58373;51.824;5.564;2024-03-17T05:47:18;102070.44;;;4.53;100.00
57990;BME280;58373;51.824;5.564;2024-03-17T05:49:43;102057.59;;;4.53;100.00
57990;BME280;58373;51.824;5.564;2024-03-17T05:52:08;102055.88;;;4.52;100.00
57990;BME280;58373;51.824;5.564;2024-03-17T05:54:34;102071.31;;;4.52;100.00
57990;BME280;58373;51.824;5.564;2024-03-17T05:56:59;102078.16;;;4.53;100.00
57990;BME280;58373;51.824;5.564;2024-03-17T05:59:24;102075.56;;;4.53;100.00
57990;BME280;58373;51.824;5.564;2024-03-17T06:01:49;102073.78;;;4.55;100.00
57990;BME280;58373;51.824;5.564;2024-03-17T06:04:14;102071.19;;;4.55;100.00
57990;BME280;58373;51.824;5.564;2024-03-17T06:06:40;102074.69;;;4.54;100.00
57990;BME280;58373;51.824;5.564;2024-03-17T06:09:05;102078.16;;;4.53;100.00
57990;BME280;58373;51.824;5.564;2024-03-17T06:11:34;102069.53;;;4.54;100.00
57990;BME280;58373;51.824;5.564;2024-03-17T06:13:59;102074.69;;;4.54;100.00
57990;BME280;58373;51.824;5.564;2024-03-17T06:16:27;102078.00;;;4.56;100.00
57990;BME280;58373;51.824;5.564;2024-03-17T06:18:52;102072.03;;;4.56;100.00
57990;BME280;58373;51.824;5.564;2024-03-17T06:21:17;102074.63;;;4.56;100.00
57990;BME280;58373;51.824;5.564;2024-03-17T06:23:42;102078.00;;;4.56;100.00
57990;BME280;58373;51.824;5.564;2024-03-17T06:26:09;102077.13;;;4.57;100.00
57990;BME280;58373;51.824;5.564;2024-03-17T06:28:37;102078.00;;;4.56;100.00
57990;BME280;58373;51.824;5.564;2024-03-17T06:31:02;102079.69;;;4.57;100.00
57990;BME280;58373;51.824;5.564;2024-03-17T06:33:32;102074.53;;;4.57;100.00
57990;BME280;58373;51.824;5.564;2024-03-17T06:35:57;102065.09;;;4.58;100.00
57990;BME280;58373;51.824;5.564;2024-03-17T06:38:22;102071.06;;;4.58;100.00
57990;BME280;58373;51.824;5.564;2024-03-17T06:40:48;102074.53;;;4.57;100.00
57990;BME280;58373;51.824;5.564;2024-03-17T06:43:14;102071.06;;;4.58;100.00
57990;BME280;58373;51.824;5.564;2024-03-17T06:45:39;102074.53;;;4.57;100.00
57990;BME280;58373;51.824;5.564;2024-03-17T06:48:04;102065.09;;;4.58;100.00
57990;BME280;58373;51.824;5.564;2024-03-17T06:50:30;102072.78;;;4.59;100.00
57990;BME280;58373;51.824;5.564;2024-03-17T06:52:55;102065.84;;;4.61;100.00
57990;BME280;58373;51.824;5.564;2024-03-17T06:55:21;102069.19;;;4.63;100.00
57990;BME280;58373;51.824;5.564;2024-03-17T06:57:46;102078.56;;;4.64;100.00
57990;BME280;58373;51.824;5.564;2024-03-17T07:00:12;102072.56;;;4.65;100.00
57990;BME280;58373;51.824;5.564;2024-03-17T07:02:41;102077.56;;;4.68;100.00
57990;BME280;58373;51.824;5.564;2024-03-17T07:05:11;102076.63;;;4.71;100.00
57990;BME280;58373;51.824;5.564;2024-03-17T07:07:39;102072.19;;;4.74;100.00
57990;BME280;58373;51.824;5.564;2024-03-17T07:10:04;102072.78;;;4.81;100.00
57990;BME280;58373;51.824;5.564;2024-03-17T07:12:30;102060.63;;;4.86;100.00
57990;BME280;58373;51.824;5.564;2024-03-17T07:14:55;102066.34;;;4.93;100.00
57990;BME280;58373;51.824;5.564;2024-03-17T07:17:20;102073.88;;;4.99;100.00
57990;BME280;58373;51.824;5.564;2024-03-17T07:19:46;102071.06;;;5.05;100.00
57990;BME280;58373;51.824;5.564;2024-03-17T07:22:11;102070.03;;;5.09;100.00
57990;BME280;58373;51.824;5.564;2024-03-17T07:24:36;102068.91;;;5.16;100.00
57990;BME280;58373;51.824;5.564;2024-03-17T07:27:01;102066.97;;;5.21;100.00
57990;BME280;58373;51.824;5.564;2024-03-17T07:29:27;102071.88;;;5.27;100.00
57990;BME280;58373;51.824;5.564;2024-03-17T07:31:53;102070.78;;;5.33;100.00
57990;BME280;58373;51.824;5.564;2024-03-17T07:34:18;102062.88;;;5.38;100.00
57990;BME280;58373;51.824;5.564;2024-03-17T07:36:43;102072.94;;;5.44;100.00
57990;BME280;58373;51.824;5.564;2024-03-17T07:39:08;102065.03;;;5.48;100.00
57990;BME280;58373;51.824;5.564;2024-03-17T07:41:33;102068.25;;;5.53;100.00
57990;BME280;58373;51.824;5.564;2024-03-17T07:43:59;102072.44;;;5.56;100.00
57990;BME280;58373;51.824;5.564;2024-03-17T07:46:24;102068.84;;;5.60;100.00
57990;BME280;58373;51.824;5.564;2024-03-17T07:48:49;102063.59;;;5.63;100.00
57990;BME280;58373;51.824;5.564;2024-03-17T07:51:15;102051.38;;;5.68;100.00
57990;BME280;58373;51.824;5.564;2024-03-17T07:53:42;102045.25;;;5.71;100.00
57990;BME280;58373;51.824;5.564;2024-03-17T07:56:08;102059.59;;;5.76;100.00
57990;BME280;58373;51.824;5.564;2024-03-17T07:58:38;102062.75;;;5.83;100.00
57990;BME280;58373;51.824;5.564;2024-03-17T08:01:04;102060.75;;;5.90;100.00
57990;BME280;58373;51.824;5.564;2024-03-17T08:03:30;102054.63;;;5.94;100.00
57990;BME280;58373;51.824;5.564;2024-03-17T08:05:56;102060.25;;;6.02;100.00
57990;BME280;58373;51.824;5.564;2024-03-17T08:08:21;102060.03;;;6.08;100.00
57990;BME280;58373;51.824;5.564;2024-03-17T08:10:47;102061.44;;;6.15;100.00
57990;BME280;58373;51.824;5.564;2024-03-17T08:13:13;102066.31;;;6.21;100.00
57990;BME280;58373;51.824;5.564;2024-03-17T08:15:40;102055.72;;;6.27;100.00
57990;BME280;58373;51.824;5.564;2024-03-17T08:18:06;102058.94;;;6.32;100.00
57990;BME280;58373;51.824;5.564;2024-03-17T08:20:35;102074.13;;;6.38;100.00
57990;BME280;58373;51.824;5.564;2024-03-17T08:23:01;102071.38;;;6.43;100.00
57990;BME280;58373;51.824;5.564;2024-03-17T08:25:26;102066.78;;;6.50;100.00
57990;BME280;58373;51.824;5.564;2024-03-17T08:27:51;102061.34;;;6.56;100.00
57990;BME280;58373;51.824;5.564;2024-03-17T08:30:17;102062.88;;;6.60;100.00
57990;BME280;58373;51.824;5.564;2024-03-17T08:32:42;102060.91;;;6.65;100.00
57990;BME280;58373;51.824;5.564;2024-03-17T08:35:07;102071.94;;;6.69;100.00
57990;BME280;58373;51.824;5.564;2024-03-17T08:37:35;102070.81;;;6.74;100.00
57990;BME280;58373;51.824;5.564;2024-03-17T08:40:01;102063.84;;;6.76;100.00
57990;BME280;58373;51.824;5.564;2024-03-17T08:42:26;102063.72;;;6.79;100.00
57990;BME280;58373;51.824;5.564;2024-03-17T08:44:51;102055.91;;;6.81;100.00
57990;BME280;58373;51.824;5.564;2024-03-17T08:47:17;102049.78;;;6.83;100.00
57990;BME280;58373;51.824;5.564;2024-03-17T08:49:42;102052.34;;;6.83;100.00
57990;BME280;58373;51.824;5.564;2024-03-17T08:52:07;102053.13;;;6.85;100.00
57990;BME280;58373;51.824;5.564;2024-03-17T08:54:32;102052.97;;;6.88;100.00
57990;BME280;58373;51.824;5.564;2024-03-17T08:56:57;102045.09;;;6.91;100.00
57990;BME280;58373;51.824;5.564;2024-03-17T08:59:23;102044.03;;;6.96;100.00
57990;BME280;58373;51.824;5.564;2024-03-17T09:01:48;102050.75;;;7.00;100.00
57990;BME280;58373;51.824;5.564;2024-03-17T09:04:13;102055.66;;;7.04;100.00
57990;BME280;58373;51.824;5.564;2024-03-17T09:06:38;102058.94;;;7.08;100.00
57990;BME280;58373;51.824;5.564;2024-03-17T09:09:04;102052.56;;;7.15;100.00
57990;BME280;58373;51.824;5.564;2024-03-17T09:11:31;102048.78;;;7.22;100.00
57990;BME280;58373;51.824;5.564;2024-03-17T09:13:56;102038.16;;;7.28;100.00
57990;BME280;58373;51.824;5.564;2024-03-17T09:16:21;102035.44;;;7.31;100.00
57990;BME280;58373;51.824;5.564;2024-03-17T09:18:48;102035.16;;;7.37;100.00
57990;BME280;58373;51.824;5.564;2024-03-17T09:21:14;102034.84;;;7.43;100.00
57990;BME280;58373;51.824;5.564;2024-03-17T09:23:41;102038.03;;;7.49;100.00
57990;BME280;58373;51.824;5.564;2024-03-17T09:26:07;102031.75;;;7.54;100.00
57990;BME280;58373;51.824;5.564;2024-03-17T09:28:41;102035.78;;;7.60;100.00
57990;BME280;58373;51.824;5.564;2024-03-17T09:31:06;102031.13;;;7.66;100.00
57990;BME280;58373;51.824;5.564;2024-03-17T09:33:32;102027.31;;;7.73;100.00
57990;BME280;58373;51.824;5.564;2024-03-17T09:36:00;102024.38;;;7.81;100.00
57990;BME280;58373;51.824;5.564;2024-03-17T09:38:25;102024.19;;;7.84;100.00
57990;BME280;58373;51.824;5.564;2024-03-17T09:40:51;102031.72;;;7.89;100.00
57990;BME280;58373;51.824;5.564;2024-03-17T09:43:22;102027.38;;;7.89;100.00
57990;BME280;58373;51.824;5.564;2024-03-17T09:45:48;102030.66;;;7.93;100.00
57990;BME280;58373;51.824;5.564;2024-03-17T09:48:15;102026.25;;;7.95;100.00
57990;BME280;58373;51.824;5.564;2024-03-17T09:50:41;102029.56;;;7.97;100.00
57990;BME280;58373;51.824;5.564;2024-03-17T09:53:06;102023.44;;;7.99;100.00
57990;BME280;58373;51.824;5.564;2024-03-17T09:55:31;102024.94;;;8.04;100.00
57990;BME280;58373;51.824;5.564;2024-03-17T09:57:57;102020.44;;;8.07;100.00
57990;BME280;58373;51.824;5.564;2024-03-17T10:00:22;102026.97;;;8.14;100.00
57990;BME280;58373;51.824;5.564;2024-03-17T10:02:47;102024.22;;;8.17;100.00
57990;BME280;58373;51.824;5.564;2024-03-17T10:07:45;102018.31;;;8.31;100.00
57990;BME280;58373;51.824;5.564;2024-03-17T10:10:11;102014.75;;;8.34;100.00
57990;BME280;58373;51.824;5.564;2024-03-17T10:12:41;102018.78;;;8.39;100.00
57990;BME280;58373;51.824;5.564;2024-03-17T10:15:07;102017.53;;;8.46;100.00
57990;BME280;58373;51.824;5.564;2024-03-17T10:17:35;102019.88;;;8.51;100.00
57990;BME280;58373;51.824;5.564;2024-03-17T10:20:11;102017.06;;;8.56;100.00
57990;BME280;58373;51.824;5.564;2024-03-17T10:22:37;102021.22;;;8.58;100.00
57990;BME280;58373;51.824;5.564;2024-03-17T10:25:02;102014.03;;;8.63;100.00
57990;BME280;58373;51.824;5.564;2024-03-17T10:27:27;102018.03;;;8.69;100.00
57990;BME280;58373;51.824;5.564;2024-03-17T10:29:53;102019.63;;;8.71;100.00
57990;BME280;58373;51.824;5.564;2024-03-17T10:32:18;102013.47;;;8.74;100.00
57990;BME280;58373;51.824;5.564;2024-03-17T10:34:44;102003.69;;;8.79;100.00
57990;BME280;58373;51.824;5.564;2024-03-17T10:39:36;101997.84;;;8.91;100.00
57990;BME280;58373;51.824;5.564;2024-03-17T10:42:03;101999.34;;;8.95;100.00
57990;BME280;58373;51.824;5.564;2024-03-17T10:44:29;102004.19;;;9.01;100.00
57990;BME280;58373;51.824;5.564;2024-03-17T10:46:55;101999.47;;;9.08;100.00
57990;BME280;58373;51.824;5.564;2024-03-17T10:49:22;102001.63;;;9.16;100.00
57990;BME280;58373;51.824;5.564;2024-03-17T10:51:49;101996.09;;;9.22;100.00
57990;BME280;58373;51.824;5.564;2024-03-17T10:54:22;101993.94;;;9.30;100.00
57990;BME280;58373;51.824;5.564;2024-03-17T10:56:48;101998.66;;;9.38;100.00
57990;BME280;58373;51.824;5.564;2024-03-17T10:59:13;101996.38;;;9.47;100.00
57990;BME280;58373;51.824;5.564;2024-03-17T11:01:40;101991.75;;;9.52;100.00
57990;BME280;58373;51.824;5.564;2024-03-17T11:04:06;101975.84;;;9.58;100.00
57990;BME280;58373;51.824;5.564;2024-03-17T11:06:36;101984.94;;;9.66;100.00
57990;BME280;58373;51.824;5.564;2024-03-17T11:09:01;101987.16;;;9.72;100.00
57990;BME280;58373;51.824;5.564;2024-03-17T11:11:35;101980.03;;;9.75;100.00
57990;BME280;58373;51.824;5.564;2024-03-17T11:14:16;101984.03;;;9.81;100.00
57990;BME280;58373;51.824;5.564;2024-03-17T11:16:43;101989.00;;;9.84;100.00
57990;BME280;58373;51.824;5.564;2024-03-17T11:19:12;101986.97;;;9.89;100.00
57990;BME280;58373;51.824;5.564;2024-03-17T11:21:39;101982.44;;;9.93;100.00
57990;BME280;58373;51.824;5.564;2024-03-17T11:24:04;101981.25;;;9.98;100.00
57990;BME280;58373;51.824;5.564;2024-03-17T11:26:31;101982.72;;;10.02;100.00
57990;BME280;58373;51.824;5.564;2024-03-17T11:28:56;101977.34;;;10.05;100.00
57990;BME280;58373;51.824;5.564;2024-03-17T11:31:33;101977.97;;;10.09;100.00
57990;BME280;58373;51.824;5.564;2024-03-17T11:34:00;101984.66;;;10.13;100.00
57990;BME280;58373;51.824;5.564;2024-03-17T11:38:55;101976.44;;;10.21;100.00
57990;BME280;58373;51.824;5.564;2024-03-17T11:46:38;101982.53;;;10.34;100.00
57990;BME280;58373;51.824;5.564;2024-03-17T11:49:04;101984.03;;;10.38;100.00
57990;BME280;58373;51.824;5.564;2024-03-17T11:51:29;101973.44;;;10.41;100.00
57990;BME280;58373;51.824;5.564;2024-03-17T11:53:57;101976.75;;;10.43;100.00
57990;BME280;58373;51.824;5.564;2024-03-17T11:56:23;101974.94;;;10.45;100.00
57990;BME280;58373;51.824;5.564;2024-03-17T11:59:02;101973.78;;;10.49;100.00
57990;BME280;58373;51.824;5.564;2024-03-17T12:01:28;101971.00;;;10.52;100.00
57990;BME280;58373;51.824;5.564;2024-03-17T12:03:53;101964.78;;;10.55;100.00
57990;BME280;58373;51.824;5.564;2024-03-17T12:06:19;101968.03;;;10.58;99.55
57990;BME280;58373;51.824;5.564;2024-03-17T12:08:45;101952.19;;;10.63;99.76
57990;BME280;58373;51.824;5.564;2024-03-17T12:11:19;101962.34;;;10.66;100.00
57990;BME280;58373;51.824;5.564;2024-03-17T12:13:44;101953.34;;;10.72;100.00
57990;BME280;58373;51.824;5.564;2024-03-17T12:16:13;101951.50;;;10.74;99.61
57990;BME280;58373;51.824;5.564;2024-03-17T12:18:38;101950.44;;;10.76;98.35
57990;BME280;58373;51.824;5.564;2024-03-17T12:21:10;101946.84;;;10.79;99.17
57990;BME280;58373;51.824;5.564;2024-03-17T12:23:36;101931.28;;;10.79;98.75
57990;BME280;58373;51.824;5.564;2024-03-17T12:26:02;101937.28;;;10.79;98.25
57990;BME280;58373;51.824;5.564;2024-03-17T12:28:27;101930.34;;;10.80;98.40
57990;BME280;58373;51.824;5.564;2024-03-17T12:30:52;101926.69;;;10.82;99.26
57990;BME280;58373;51.824;5.564;2024-03-17T12:33:18;101937.00;;;10.84;98.25
57990;BME280;58373;51.824;5.564;2024-03-17T12:35:44;101929.22;;;10.84;98.31
57990;BME280;58373;51.824;5.564;2024-03-17T12:38:22;101926.63;;;10.84;98.59
57990;BME280;58373;51.824;5.564;2024-03-17T12:40:48;101922.34;;;10.83;97.85
57990;BME280;58373;51.824;5.564;2024-03-17T12:43:13;101922.34;;;10.83;97.23
57990;BME280;58373;51.824;5.564;2024-03-17T12:45:38;101916.22;;;10.84;97.83
57990;BME280;58373;51.824;5.564;2024-03-17T12:48:03;101905.09;;;10.82;97.00
57990;BME280;58373;51.824;5.564;2024-03-17T12:50:29;101898.06;;;10.84;97.78
57990;BME280;58373;51.824;5.564;2024-03-17T12:52:54;101898.06;;;10.84;97.28
57990;BME280;58373;51.824;5.564;2024-03-17T12:55:20;101901.38;;;10.86;97.67
57990;BME280;58373;51.824;5.564;2024-03-17T13:01:00;101902.84;;;10.90;98.42